sensor_id;sensor_type;location;lat;lon;timestamp;P1;durP1;ratioP1;P2;durP2;ratioP2
26860;SDS011;37676;46.956;7.430;2022-09-01T00:01:36;4.40;;;1.80;;
26860;SDS011;37676;46.956;7.430;2022-09-01T00:04:05;3.13;;;1.67;;
26860;SDS011;37676;46.956;7.430;2022-09-01T00:06:32;2.42;;;1.40;;
26860;SDS011;37676;46.956;7.430;2022-09-01T00:09:00;2.15;;;1.27;;
26860;SDS011;37676;46.956;7.430;2022-09-01T00:11:28;2.50;;;1.40;;
26860;SDS011;37676;46.956;7.430;2022-09-01T00:13:55;2.38;;;1.33;;
26860;SDS011;37676;46.956;7.430;2022-09-01T00:16:21;2.55;;;1.50;;
26860;SDS011;37676;46.956;7.430;2022-09-01T00:18:48;2.35;;;1.30;;
26860;SDS011;37676;46.956;7.430;2022-09-01T00:21:20;2.65;;;1.35;;
26860;SDS011;37676;46.956;7.430;2022-09-01T00:23:48;2.67;;;1.40;;
26860;SDS011;37676;46.956;7.430;2022-09-01T00:26:14;2.70;;;1.45;;
26860;SDS011;37676;46.956;7.430;2022-09-01T00:28:39;2.47;;;1.27;;
26860;SDS011;37676;46.956;7.430;2022-09-01T00:31:05;2.85;;;1.48;;
26860;SDS011;37676;46.956;7.430;2022-09-01T00:33:32;3.20;;;1.85;;
26860;SDS011;37676;46.956;7.430;2022-09-01T00:35:58;3.50;;;2.17;;
26860;SDS011;37676;46.956;7.430;2022-09-01T00:38:24;3.10;;;1.77;;
26860;SDS011;37676;46.956;7.430;2022-09-01T00:40:50;3.72;;;2.30;;
26860;SDS011;37676;46.956;7.430;2022-09-01T00:43:16;2.42;;;1.50;;
26860;SDS011;37676;46.956;7.430;2022-09-01T00:45:46;2.35;;;1.35;;
26860;SDS011;37676;46.956;7.430;2022-09-01T00:48:11;3.20;;;1.70;;
26860;SDS011;37676;46.956;7.430;2022-09-01T00:50:39;3.50;;;2.10;;
26860;SDS011;37676;46.956;7.430;2022-09-01T00:53:05;2.47;;;1.30;;
26860;SDS011;37676;46.956;7.430;2022-09-01T00:55:32;3.55;;;1.80;;
26860;SDS011;37676;46.956;7.430;2022-09-01T00:58:01;2.60;;;1.55;;
26860;SDS011;37676;46.956;7.430;2022-09-01T01:00:31;3.00;;;1.70;;
26860;SDS011;37676;46.956;7.430;2022-09-01T01:02:57;2.72;;;1.70;;
26860;SDS011;37676;46.956;7.430;2022-09-01T01:05:28;3.88;;;2.42;;
26860;SDS011;37676;46.956;7.430;2022-09-01T01:07:57;3.55;;;2.10;;
26860;SDS011;37676;46.956;7.430;2022-09-01T01:10:25;3.15;;;1.50;;
26860;SDS011;37676;46.956;7.430;2022-09-01T01:12:53;2.78;;;1.75;;
26860;SDS011;37676;46.956;7.430;2022-09-01T01:15:19;3.28;;;1.92;;
26860;SDS011;37676;46.956;7.430;2022-09-01T01:17:44;3.03;;;1.80;;
26860;SDS011;37676;46.956;7.430;2022-09-01T01:20:10;3.92;;;2.45;;
26860;SDS011;37676;46.956;7.430;2022-09-01T01:25:58;3.47;;;1.92;;
26860;SDS011;37676;46.956;7.430;2022-09-01T01:28:28;3.10;;;2.03;;
26860;SDS011;37676;46.956;7.430;2022-09-01T01:31:00;3.38;;;1.77;;
26860;SDS011;37676;46.956;7.430;2022-09-01T01:33:37;3.78;;;1.88;;
26860;SDS011;37676;46.956;7.430;2022-09-01T01:36:05;4.13;;;2.50;;
26860;SDS011;37676;46.956;7.430;2022-09-01T01:38:31;3.88;;;2.40;;
26860;SDS011;37676;46.956;7.430;2022-09-01T01:41:00;4.78;;;2.92;;
26860;SDS011;37676;46.956;7.430;2022-09-01T01:43:27;4.38;;;2.83;;
26860;SDS011;37676;46.956;7.430;2022-09-01T01:45:54;4.93;;;3.30;;
26860;SDS011;37676;46.956;7.430;2022-09-01T01:48:26;3.70;;;2.30;;
26860;SDS011;37676;46.956;7.430;2022-09-01T01:50:53;4.18;;;2.00;;
26860;SDS011;37676;46.956;7.430;2022-09-01T01:53:22;3.78;;;1.90;;
26860;SDS011;37676;46.956;7.430;2022-09-01T01:55:47;3.63;;;2.00;;
26860;SDS011;37676;46.956;7.430;2022-09-01T01:58:13;3.28;;;1.88;;
26860;SDS011;37676;46.956;7.430;2022-09-01T02:00:39;3.95;;;1.92;;
26860;SDS011;37676;46.956;7.430;2022-09-01T02:03:08;2.97;;;1.85;;
26860;SDS011;37676;46.956;7.430;2022-09-01T02:05:36;3.92;;;2.50;;
26860;SDS011;37676;46.956;7.430;2022-09-01T02:08:07;3.38;;;1.95;;
26860;SDS011;37676;46.956;7.430;2022-09-01T02:10:35;3.13;;;1.90;;
26860;SDS011;37676;46.956;7.430;2022-09-01T02:13:06;3.88;;;2.40;;
26860;SDS011;37676;46.956;7.430;2022-09-01T02:15:34;3.55;;;2.20;;
26860;SDS011;37676;46.956;7.430;2022-09-01T02:18:19;4.07;;;2.67;;
26860;SDS011;37676;46.956;7.430;2022-09-01T02:20:49;3.42;;;2.17;;
26860;SDS011;37676;46.956;7.430;2022-09-01T02:23:16;3.83;;;2.33;;
26860;SDS011;37676;46.956;7.430;2022-09-01T02:25:44;3.47;;;2.20;;
26860;SDS011;37676;46.956;7.430;2022-09-01T02:28:11;3.30;;;2.10;;
26860;SDS011;37676;46.956;7.430;2022-09-01T02:30:40;3.10;;;1.85;;
26860;SDS011;37676;46.956;7.430;2022-09-01T02:33:06;3.58;;;2.13;;
26860;SDS011;37676;46.956;7.430;2022-09-01T02:35:33;4.00;;;2.15;;
26860;SDS011;37676;46.956;7.430;2022-09-01T02:38:00;3.95;;;2.40;;
26860;SDS011;37676;46.956;7.430;2022-09-01T02:40:27;3.70;;;2.30;;
26860;SDS011;37676;46.956;7.430;2022-09-01T02:42:56;4.03;;;2.50;;
26860;SDS011;37676;46.956;7.430;2022-09-01T02:45:23;4.25;;;2.58;;
26860;SDS011;37676;46.956;7.430;2022-09-01T02:47:49;2.80;;;1.70;;
26860;SDS011;37676;46.956;7.430;2022-09-01T02:50:15;4.32;;;2.70;;
26860;SDS011;37676;46.956;7.430;2022-09-01T02:52:45;4.05;;;2.47;;
26860;SDS011;37676;46.956;7.430;2022-09-01T02:55:13;3.25;;;1.95;;
26860;SDS011;37676;46.956;7.430;2022-09-01T02:57:43;4.13;;;2.60;;
26860;SDS011;37676;46.956;7.430;2022-09-01T03:00:12;4.13;;;2.58;;
26860;SDS011;37676;46.956;7.430;2022-09-01T03:02:50;3.92;;;2.40;;
26860;SDS011;37676;46.956;7.430;2022-09-01T03:05:17;3.78;;;2.25;;
26860;SDS011;37676;46.956;7.430;2022-09-01T03:07:49;3.35;;;2.00;;
26860;SDS011;37676;46.956;7.430;2022-09-01T03:10:20;3.88;;;2.10;;
26860;SDS011;37676;46.956;7.430;2022-09-01T03:12:48;3.83;;;2.50;;
26860;SDS011;37676;46.956;7.430;2022-09-01T03:15:13;3.25;;;1.92;;
26860;SDS011;37676;46.956;7.430;2022-09-01T03:17:39;3.60;;;2.00;;
26860;SDS011;37676;46.956;7.430;2022-09-01T03:20:05;3.80;;;2.20;;
26860;SDS011;37676;46.956;7.430;2022-09-01T03:22:31;3.13;;;1.88;;
26860;SDS011;37676;46.956;7.430;2022-09-01T03:24:57;4.00;;;2.30;;
26860;SDS011;37676;46.956;7.430;2022-09-01T03:27:23;4.28;;;2.58;;
26860;SDS011;37676;46.956;7.430;2022-09-01T03:29:49;4.10;;;2.60;;
26860;SDS011;37676;46.956;7.430;2022-09-01T03:32:14;3.40;;;2.05;;
26860;SDS011;37676;46.956;7.430;2022-09-01T03:34:39;4.60;;;2.85;;
26860;SDS011;37676;46.956;7.430;2022-09-01T03:37:05;4.53;;;2.85;;
26860;SDS011;37676;46.956;7.430;2022-09-01T03:39:32;3.90;;;2.50;;
26860;SDS011;37676;46.956;7.430;2022-09-01T03:41:58;4.07;;;2.28;;
26860;SDS011;37676;46.956;7.430;2022-09-01T03:44:24;3.90;;;2.33;;
26860;SDS011;37676;46.956;7.430;2022-09-01T03:46:50;4.38;;;2.50;;
26860;SDS011;37676;46.956;7.430;2022-09-01T03:49:16;4.35;;;2.65;;
26860;SDS011;37676;46.956;7.430;2022-09-01T03:51:49;4.28;;;3.00;;
26860;SDS011;37676;46.956;7.430;2022-09-01T03:54:16;5.35;;;3.63;;
26860;SDS011;37676;46.956;7.430;2022-09-01T03:56:42;4.90;;;2.83;;
26860;SDS011;37676;46.956;7.430;2022-09-01T03:59:07;5.40;;;2.47;;
26860;SDS011;37676;46.956;7.430;2022-09-01T04:01:40;4.65;;;2.55;;
26860;SDS011;37676;46.956;7.430;2022-09-01T04:04:08;3.85;;;2.33;;
26860;SDS011;37676;46.956;7.430;2022-09-01T04:06:38;3.80;;;2.20;;
26860;SDS011;37676;46.956;7.430;2022-09-01T04:09:05;4.13;;;2.38;;
26860;SDS011;37676;46.956;7.430;2022-09-01T04:11:30;4.75;;;2.88;;
26860;SDS011;37676;46.956;7.430;2022-09-01T04:13:57;3.92;;;2.50;;
26860;SDS011;37676;46.956;7.430;2022-09-01T04:16:25;4.63;;;2.65;;
26860;SDS011;37676;46.956;7.430;2022-09-01T04:19:12;4.30;;;2.40;;
26860;SDS011;37676;46.956;7.430;2022-09-01T04:21:50;3.72;;;1.92;;
26860;SDS011;37676;46.956;7.430;2022-09-01T04:24:18;5.03;;;2.72;;
26860;SDS011;37676;46.956;7.430;2022-09-01T04:26:44;4.93;;;2.80;;
26860;SDS011;37676;46.956;7.430;2022-09-01T04:29:14;5.10;;;3.05;;
26860;SDS011;37676;46.956;7.430;2022-09-01T04:31:42;4.50;;;2.67;;
26860;SDS011;37676;46.956;7.430;2022-09-01T04:34:08;4.30;;;2.70;;
26860;SDS011;37676;46.956;7.430;2022-09-01T04:36:37;4.60;;;3.08;;
26860;SDS011;37676;46.956;7.430;2022-09-01T04:39:05;4.88;;;2.85;;
26860;SDS011;37676;46.956;7.430;2022-09-01T04:41:34;3.55;;;2.08;;
26860;SDS011;37676;46.956;7.430;2022-09-01T04:44:02;4.00;;;2.50;;
26860;SDS011;37676;46.956;7.430;2022-09-01T04:46:30;4.20;;;2.80;;
26860;SDS011;37676;46.956;7.430;2022-09-01T04:48:59;3.83;;;2.13;;
26860;SDS011;37676;46.956;7.430;2022-09-01T04:51:28;11.80;;;2.60;;
26860;SDS011;37676;46.956;7.430;2022-09-01T04:53:56;4.57;;;2.90;;
26860;SDS011;37676;46.956;7.430;2022-09-01T04:56:22;4.70;;;2.83;;
26860;SDS011;37676;46.956;7.430;2022-09-01T04:58:50;4.40;;;2.78;;
26860;SDS011;37676;46.956;7.430;2022-09-01T05:01:19;4.18;;;2.22;;
26860;SDS011;37676;46.956;7.430;2022-09-01T05:03:49;5.40;;;3.63;;
26860;SDS011;37676;46.956;7.430;2022-09-01T05:06:25;4.93;;;2.70;;
26860;SDS011;37676;46.956;7.430;2022-09-01T05:08:52;4.25;;;2.90;;
26860;SDS011;37676;46.956;7.430;2022-09-01T05:11:21;4.82;;;2.80;;
26860;SDS011;37676;46.956;7.430;2022-09-01T05:13:48;5.05;;;3.08;;
26860;SDS011;37676;46.956;7.430;2022-09-01T05:16:16;4.47;;;2.75;;
26860;SDS011;37676;46.956;7.430;2022-09-01T05:18:46;5.88;;;3.85;;
26860;SDS011;37676;46.956;7.430;2022-09-01T05:21:14;6.28;;;4.07;;
26860;SDS011;37676;46.956;7.430;2022-09-01T05:23:43;5.70;;;3.47;;
26860;SDS011;37676;46.956;7.430;2022-09-01T05:26:18;4.28;;;2.88;;
26860;SDS011;37676;46.956;7.430;2022-09-01T05:28:47;5.68;;;3.72;;
26860;SDS011;37676;46.956;7.430;2022-09-01T05:31:13;4.53;;;3.03;;
26860;SDS011;37676;46.956;7.430;2022-09-01T05:33:43;6.38;;;4.32;;
26860;SDS011;37676;46.956;7.430;2022-09-01T05:36:14;5.18;;;3.08;;
26860;SDS011;37676;46.956;7.430;2022-09-01T05:38:42;5.20;;;3.55;;
26860;SDS011;37676;46.956;7.430;2022-09-01T05:41:09;4.50;;;2.83;;
26860;SDS011;37676;46.956;7.430;2022-09-01T05:43:39;6.65;;;3.97;;
26860;SDS011;37676;46.956;7.430;2022-09-01T05:46:09;4.93;;;3.30;;
26860;SDS011;37676;46.956;7.430;2022-09-01T05:48:34;5.32;;;3.47;;
26860;SDS011;37676;46.956;7.430;2022-09-01T05:51:04;4.47;;;2.75;;
26860;SDS011;37676;46.956;7.430;2022-09-01T05:53:30;5.03;;;3.42;;
26860;SDS011;37676;46.956;7.430;2022-09-01T05:55:58;5.45;;;3.40;;
26860;SDS011;37676;46.956;7.430;2022-09-01T05:58:24;5.10;;;3.60;;
26860;SDS011;37676;46.956;7.430;2022-09-01T06:00:51;4.38;;;2.78;;
26860;SDS011;37676;46.956;7.430;2022-09-01T06:03:19;5.00;;;3.45;;
26860;SDS011;37676;46.956;7.430;2022-09-01T06:05:46;4.95;;;3.58;;
26860;SDS011;37676;46.956;7.430;2022-09-01T06:08:17;6.72;;;4.22;;
26860;SDS011;37676;46.956;7.430;2022-09-01T06:10:44;5.93;;;4.10;;
26860;SDS011;37676;46.956;7.430;2022-09-01T06:13:10;6.45;;;4.35;;
26860;SDS011;37676;46.956;7.430;2022-09-01T06:15:40;4.05;;;2.85;;
26860;SDS011;37676;46.956;7.430;2022-09-01T06:18:08;4.97;;;3.50;;
26860;SDS011;37676;46.956;7.430;2022-09-01T06:20:39;6.10;;;3.70;;
26860;SDS011;37676;46.956;7.430;2022-09-01T06:23:06;6.30;;;4.28;;
26860;SDS011;37676;46.956;7.430;2022-09-01T06:25:31;5.20;;;3.47;;
26860;SDS011;37676;46.956;7.430;2022-09-01T06:28:00;6.25;;;4.63;;
26860;SDS011;37676;46.956;7.430;2022-09-01T06:30:28;5.70;;;3.95;;
26860;SDS011;37676;46.956;7.430;2022-09-01T06:32:54;5.93;;;4.10;;
26860;SDS011;37676;46.956;7.430;2022-09-01T06:35:20;7.30;;;4.45;;
26860;SDS011;37676;46.956;7.430;2022-09-01T06:37:49;5.65;;;3.70;;
26860;SDS011;37676;46.956;7.430;2022-09-01T06:40:15;6.88;;;4.38;;
26860;SDS011;37676;46.956;7.430;2022-09-01T06:42:51;5.20;;;3.95;;
26860;SDS011;37676;46.956;7.430;2022-09-01T06:45:20;4.50;;;3.00;;
26860;SDS011;37676;46.956;7.430;2022-09-01T06:47:48;5.45;;;3.67;;
26860;SDS011;37676;46.956;7.430;2022-09-01T06:50:15;5.72;;;3.50;;
26860;SDS011;37676;46.956;7.430;2022-09-01T06:52:43;5.40;;;3.78;;
26860;SDS011;37676;46.956;7.430;2022-09-01T06:55:09;8.20;;;6.40;;
26860;SDS011;37676;46.956;7.430;2022-09-01T06:57:37;7.05;;;5.05;;
26860;SDS011;37676;46.956;7.430;2022-09-01T07:00:08;7.03;;;5.35;;
26860;SDS011;37676;46.956;7.430;2022-09-01T07:02:42;6.40;;;4.50;;
26860;SDS011;37676;46.956;7.430;2022-09-01T07:05:09;6.20;;;4.10;;
26860;SDS011;37676;46.956;7.430;2022-09-01T07:07:35;6.15;;;4.72;;
26860;SDS011;37676;46.956;7.430;2022-09-01T07:10:02;4.65;;;3.22;;
26860;SDS011;37676;46.956;7.430;2022-09-01T07:12:28;4.82;;;2.83;;
26860;SDS011;37676;46.956;7.430;2022-09-01T07:14:54;4.15;;;2.42;;
26860;SDS011;37676;46.956;7.430;2022-09-01T07:17:20;4.18;;;2.50;;
26860;SDS011;37676;46.956;7.430;2022-09-01T07:19:46;5.45;;;3.58;;
26860;SDS011;37676;46.956;7.430;2022-09-01T07:22:12;5.53;;;3.35;;
26860;SDS011;37676;46.956;7.430;2022-09-01T07:24:37;4.07;;;2.65;;
26860;SDS011;37676;46.956;7.430;2022-09-01T07:27:04;5.57;;;2.70;;
26860;SDS011;37676;46.956;7.430;2022-09-01T07:29:29;3.97;;;2.50;;
26860;SDS011;37676;46.956;7.430;2022-09-01T07:31:55;4.25;;;2.58;;
26860;SDS011;37676;46.956;7.430;2022-09-01T07:34:21;4.10;;;2.50;;
26860;SDS011;37676;46.956;7.430;2022-09-01T07:36:46;3.92;;;2.35;;
26860;SDS011;37676;46.956;7.430;2022-09-01T07:39:12;4.22;;;2.42;;
26860;SDS011;37676;46.956;7.430;2022-09-01T07:41:38;6.63;;;3.83;;
26860;SDS011;37676;46.956;7.430;2022-09-01T07:44:06;5.63;;;3.70;;
26860;SDS011;37676;46.956;7.430;2022-09-01T07:46:34;3.80;;;2.40;;
26860;SDS011;37676;46.956;7.430;2022-09-01T07:49:00;3.08;;;1.88;;
26860;SDS011;37676;46.956;7.430;2022-09-01T07:51:26;3.45;;;2.10;;
26860;SDS011;37676;46.956;7.430;2022-09-01T07:53:53;6.65;;;4.93;;
26860;SDS011;37676;46.956;7.430;2022-09-01T07:56:20;5.55;;;3.95;;
26860;SDS011;37676;46.956;7.430;2022-09-01T07:58:47;6.25;;;3.65;;
26860;SDS011;37676;46.956;7.430;2022-09-01T08:01:15;4.45;;;2.50;;
26860;SDS011;37676;46.956;7.430;2022-09-01T08:03:46;4.60;;;3.00;;
26860;SDS011;37676;46.956;7.430;2022-09-01T08:06:30;3.83;;;2.22;;
26860;SDS011;37676;46.956;7.430;2022-09-01T08:08:56;3.22;;;1.88;;
26860;SDS011;37676;46.956;7.430;2022-09-01T08:11:25;3.60;;;2.00;;
26860;SDS011;37676;46.956;7.430;2022-09-01T08:13:53;3.88;;;2.40;;
26860;SDS011;37676;46.956;7.430;2022-09-01T08:16:19;4.32;;;2.92;;
26860;SDS011;37676;46.956;7.430;2022-09-01T08:18:46;5.85;;;2.78;;
26860;SDS011;37676;46.956;7.430;2022-09-01T08:21:12;3.72;;;2.25;;
26860;SDS011;37676;46.956;7.430;2022-09-01T08:23:39;3.88;;;2.05;;
26860;SDS011;37676;46.956;7.430;2022-09-01T08:26:10;2.90;;;1.60;;
26860;SDS011;37676;46.956;7.430;2022-09-01T08:28:38;4.90;;;2.78;;
26860;SDS011;37676;46.956;7.430;2022-09-01T08:31:05;4.82;;;2.45;;
26860;SDS011;37676;46.956;7.430;2022-09-01T08:33:31;4.10;;;2.47;;
26860;SDS011;37676;46.956;7.430;2022-09-01T08:35:59;3.85;;;2.13;;
26860;SDS011;37676;46.956;7.430;2022-09-01T08:38:24;3.75;;;2.10;;
26860;SDS011;37676;46.956;7.430;2022-09-01T08:40:52;3.53;;;1.93;;
26860;SDS011;37676;46.956;7.430;2022-09-01T08:45:56;2.70;;;1.63;;
26860;SDS011;37676;46.956;7.430;2022-09-01T08:48:41;3.50;;;2.10;;
26860;SDS011;37676;46.956;7.430;2022-09-01T08:51:19;3.70;;;2.10;;
26860;SDS011;37676;46.956;7.430;2022-09-01T08:56:42;4.43;;;2.97;;
26860;SDS011;37676;46.956;7.430;2022-09-01T08:59:08;3.83;;;2.33;;
26860;SDS011;37676;46.956;7.430;2022-09-01T09:07:26;3.22;;;1.88;;
26860;SDS011;37676;46.956;7.430;2022-09-01T09:09:56;3.97;;;2.13;;
26860;SDS011;37676;46.956;7.430;2022-09-01T09:17:34;3.65;;;2.42;;
26860;SDS011;37676;46.956;7.430;2022-09-01T09:20:05;5.22;;;2.83;;
26860;SDS011;37676;46.956;7.430;2022-09-01T09:22:31;3.60;;;2.00;;
26860;SDS011;37676;46.956;7.430;2022-09-01T09:27:40;4.68;;;3.03;;
26860;SDS011;37676;46.956;7.430;2022-09-01T09:30:09;5.30;;;3.22;;
26860;SDS011;37676;46.956;7.430;2022-09-01T09:32:54;4.20;;;2.55;;
26860;SDS011;37676;46.956;7.430;2022-09-01T09:35:33;4.60;;;2.37;;
26860;SDS011;37676;46.956;7.430;2022-09-01T09:43:23;3.60;;;1.90;;
26860;SDS011;37676;46.956;7.430;2022-09-01T09:45:48;3.50;;;1.98;;
26860;SDS011;37676;46.956;7.430;2022-09-01T09:48:32;3.70;;;2.33;;
26860;SDS011;37676;46.956;7.430;2022-09-01T09:51:14;3.55;;;2.00;;
26860;SDS011;37676;46.956;7.430;2022-09-01T09:53:41;2.45;;;1.50;;
26860;SDS011;37676;46.956;7.430;2022-09-01T09:56:09;3.53;;;1.70;;
26860;SDS011;37676;46.956;7.430;2022-09-01T09:58:45;3.80;;;1.88;;
26860;SDS011;37676;46.956;7.430;2022-09-01T10:01:14;3.53;;;2.20;;
26860;SDS011;37676;46.956;7.430;2022-09-01T10:03:57;3.10;;;1.55;;
26860;SDS011;37676;46.956;7.430;2022-09-01T10:06:35;3.55;;;2.00;;
26860;SDS011;37676;46.956;7.430;2022-09-01T10:09:45;3.15;;;1.70;;
26860;SDS011;37676;46.956;7.430;2022-09-01T10:11:51;3.58;;;2.40;;
26860;SDS011;37676;46.956;7.430;2022-09-01T10:14:22;4.30;;;2.72;;
26860;SDS011;37676;46.956;7.430;2022-09-01T10:16:59;4.53;;;2.85;;
26860;SDS011;37676;46.956;7.430;2022-09-01T10:19:28;4.03;;;2.50;;
26860;SDS011;37676;46.956;7.430;2022-09-01T10:21:57;4.28;;;2.20;;
26860;SDS011;37676;46.956;7.430;2022-09-01T10:24:25;3.88;;;2.38;;
26860;SDS011;37676;46.956;7.430;2022-09-01T10:26:56;3.42;;;1.50;;
26860;SDS011;37676;46.956;7.430;2022-09-01T10:29:27;3.55;;;2.05;;
26860;SDS011;37676;46.956;7.430;2022-09-01T10:31:57;3.60;;;2.13;;
26860;SDS011;37676;46.956;7.430;2022-09-01T10:34:24;3.20;;;1.80;;
26860;SDS011;37676;46.956;7.430;2022-09-01T10:36:54;3.60;;;2.10;;
26860;SDS011;37676;46.956;7.430;2022-09-01T10:39:19;3.15;;;1.58;;
26860;SDS011;37676;46.956;7.430;2022-09-01T10:41:52;3.20;;;1.83;;
26860;SDS011;37676;46.956;7.430;2022-09-01T10:44:29;3.47;;;2.17;;
26860;SDS011;37676;46.956;7.430;2022-09-01T10:47:10;2.92;;;1.75;;
26860;SDS011;37676;46.956;7.430;2022-09-01T10:55:17;3.28;;;1.95;;
26860;SDS011;37676;46.956;7.430;2022-09-01T11:03:21;4.57;;;2.40;;
26860;SDS011;37676;46.956;7.430;2022-09-01T11:08:39;2.92;;;1.77;;
26860;SDS011;37676;46.956;7.430;2022-09-01T11:13:53;4.10;;;2.45;;
26860;SDS011;37676;46.956;7.430;2022-09-01T11:16:24;3.78;;;1.95;;
26860;SDS011;37676;46.956;7.430;2022-09-01T11:18:52;3.33;;;1.88;;
26860;SDS011;37676;46.956;7.430;2022-09-01T11:21:28;3.30;;;1.65;;
26860;SDS011;37676;46.956;7.430;2022-09-01T11:27:00;2.88;;;1.50;;
26860;SDS011;37676;46.956;7.430;2022-09-01T11:32:36;2.75;;;1.40;;
26860;SDS011;37676;46.956;7.430;2022-09-01T11:35:06;3.10;;;1.90;;
26860;SDS011;37676;46.956;7.430;2022-09-01T11:37:41;2.78;;;1.60;;
26860;SDS011;37676;46.956;7.430;2022-09-01T11:40:07;3.72;;;2.15;;
26860;SDS011;37676;46.956;7.430;2022-09-01T11:42:38;2.80;;;1.70;;
26860;SDS011;37676;46.956;7.430;2022-09-01T11:47:40;2.58;;;1.55;;
26860;SDS011;37676;46.956;7.430;2022-09-01T11:52:40;1.92;;;1.10;;
26860;SDS011;37676;46.956;7.430;2022-09-01T11:55:05;3.53;;;2.08;;
26860;SDS011;37676;46.956;7.430;2022-09-01T11:57:33;2.83;;;1.63;;
26860;SDS011;37676;46.956;7.430;2022-09-01T12:00:03;2.30;;;1.33;;
26860;SDS011;37676;46.956;7.430;2022-09-01T12:02:32;2.50;;;1.30;;
26860;SDS011;37676;46.956;7.430;2022-09-01T12:04:59;3.00;;;1.70;;
26860;SDS011;37676;46.956;7.430;2022-09-01T12:07:29;3.42;;;1.67;;
26860;SDS011;37676;46.956;7.430;2022-09-01T12:12:42;2.67;;;1.73;;
26860;SDS011;37676;46.956;7.430;2022-09-01T12:15:10;2.75;;;1.50;;
26860;SDS011;37676;46.956;7.430;2022-09-01T12:17:43;2.67;;;1.33;;
26860;SDS011;37676;46.956;7.430;2022-09-01T12:20:28;1.88;;;1.00;;
26860;SDS011;37676;46.956;7.430;2022-09-01T12:22:57;2.22;;;1.38;;
26860;SDS011;37676;46.956;7.430;2022-09-01T12:25:27;3.65;;;1.75;;
26860;SDS011;37676;46.956;7.430;2022-09-01T12:27:55;3.08;;;1.52;;
26860;SDS011;37676;46.956;7.430;2022-09-01T12:30:23;2.58;;;1.63;;
26860;SDS011;37676;46.956;7.430;2022-09-01T12:32:50;2.72;;;1.63;;
26860;SDS011;37676;46.956;7.430;2022-09-01T12:35:20;3.95;;;2.70;;
26860;SDS011;37676;46.956;7.430;2022-09-01T12:37:48;3.67;;;2.10;;
26860;SDS011;37676;46.956;7.430;2022-09-01T12:40:24;3.45;;;1.90;;
26860;SDS011;37676;46.956;7.430;2022-09-01T12:42:54;3.50;;;1.83;;
26860;SDS011;37676;46.956;7.430;2022-09-01T12:45:39;3.20;;;2.08;;
26860;SDS011;37676;46.956;7.430;2022-09-01T12:51:15;3.30;;;2.00;;
26860;SDS011;37676;46.956;7.430;2022-09-01T12:53:54;5.18;;;2.40;;
26860;SDS011;37676;46.956;7.430;2022-09-01T12:56:26;3.20;;;1.88;;
26860;SDS011;37676;46.956;7.430;2022-09-01T12:59:09;2.90;;;1.70;;
26860;SDS011;37676;46.956;7.430;2022-09-01T13:01:38;2.78;;;1.73;;
26860;SDS011;37676;46.956;7.430;2022-09-01T13:04:24;3.35;;;1.92;;
26860;SDS011;37676;46.956;7.430;2022-09-01T13:07:04;4.45;;;1.75;;
26860;SDS011;37676;46.956;7.430;2022-09-01T13:09:31;2.67;;;1.50;;
26860;SDS011;37676;46.956;7.430;2022-09-01T13:12:10;3.13;;;1.70;;
26860;SDS011;37676;46.956;7.430;2022-09-01T13:14:45;2.85;;;1.40;;
26860;SDS011;37676;46.956;7.430;2022-09-01T13:17:11;3.30;;;1.85;;
26860;SDS011;37676;46.956;7.430;2022-09-01T13:19:37;2.97;;;1.80;;
26860;SDS011;37676;46.956;7.430;2022-09-01T13:22:03;3.17;;;1.85;;
26860;SDS011;37676;46.956;7.430;2022-09-01T13:24:29;2.92;;;1.67;;
26860;SDS011;37676;46.956;7.430;2022-09-01T13:26:54;5.50;;;2.90;;
26860;SDS011;37676;46.956;7.430;2022-09-01T13:29:21;3.00;;;1.60;;
26860;SDS011;37676;46.956;7.430;2022-09-01T13:31:46;4.22;;;2.47;;
26860;SDS011;37676;46.956;7.430;2022-09-01T13:34:12;3.13;;;1.97;;
26860;SDS011;37676;46.956;7.430;2022-09-01T13:36:37;2.33;;;1.52;;
26860;SDS011;37676;46.956;7.430;2022-09-01T13:39:02;3.38;;;1.70;;
26860;SDS011;37676;46.956;7.430;2022-09-01T13:41:28;2.63;;;1.60;;
26860;SDS011;37676;46.956;7.430;2022-09-01T13:43:55;4.05;;;2.13;;
26860;SDS011;37676;46.956;7.430;2022-09-01T13:46:20;3.17;;;1.88;;
26860;SDS011;37676;46.956;7.430;2022-09-01T13:48:46;2.83;;;1.77;;
26860;SDS011;37676;46.956;7.430;2022-09-01T13:51:11;2.50;;;1.58;;
26860;SDS011;37676;46.956;7.430;2022-09-01T13:53:36;2.50;;;1.20;;
26860;SDS011;37676;46.956;7.430;2022-09-01T13:56:02;2.50;;;1.40;;
26860;SDS011;37676;46.956;7.430;2022-09-01T13:58:27;3.53;;;1.80;;
26860;SDS011;37676;46.956;7.430;2022-09-01T14:00:53;4.10;;;1.75;;
26860;SDS011;37676;46.956;7.430;2022-09-01T14:03:19;2.85;;;1.60;;
26860;SDS011;37676;46.956;7.430;2022-09-01T14:05:46;2.58;;;1.58;;
26860;SDS011;37676;46.956;7.430;2022-09-01T14:08:14;2.95;;;1.42;;
26860;SDS011;37676;46.956;7.430;2022-09-01T14:10:42;3.80;;;2.10;;
26860;SDS011;37676;46.956;7.430;2022-09-01T14:13:10;2.88;;;1.50;;
26860;SDS011;37676;46.956;7.430;2022-09-01T14:15:36;2.15;;;1.30;;
26860;SDS011;37676;46.956;7.430;2022-09-01T14:18:03;2.30;;;1.40;;
26860;SDS011;37676;46.956;7.430;2022-09-01T14:20:32;2.72;;;1.50;;
26860;SDS011;37676;46.956;7.430;2022-09-01T14:23:00;2.40;;;1.52;;
26860;SDS011;37676;46.956;7.430;2022-09-01T14:25:27;2.85;;;1.63;;
26860;SDS011;37676;46.956;7.430;2022-09-01T14:27:53;2.92;;;1.70;;
26860;SDS011;37676;46.956;7.430;2022-09-01T14:30:21;4.20;;;2.38;;
26860;SDS011;37676;46.956;7.430;2022-09-01T14:32:48;2.63;;;1.23;;
26860;SDS011;37676;46.956;7.430;2022-09-01T14:35:16;2.58;;;1.30;;
26860;SDS011;37676;46.956;7.430;2022-09-01T14:37:43;3.58;;;1.90;;
26860;SDS011;37676;46.956;7.430;2022-09-01T14:40:10;2.33;;;1.20;;
26860;SDS011;37676;46.956;7.430;2022-09-01T14:42:39;1.90;;;1.02;;
26860;SDS011;37676;46.956;7.430;2022-09-01T14:45:07;2.30;;;1.00;;
26860;SDS011;37676;46.956;7.430;2022-09-01T14:47:35;2.28;;;1.45;;
26860;SDS011;37676;46.956;7.430;2022-09-01T14:50:01;3.72;;;1.92;;
26860;SDS011;37676;46.956;7.430;2022-09-01T14:52:27;3.17;;;2.03;;
26860;SDS011;37676;46.956;7.430;2022-09-01T14:54:54;2.20;;;1.10;;
26860;SDS011;37676;46.956;7.430;2022-09-01T14:57:19;2.35;;;1.30;;
26860;SDS011;37676;46.956;7.430;2022-09-01T14:59:44;3.05;;;1.70;;
26860;SDS011;37676;46.956;7.430;2022-09-01T15:02:10;3.38;;;1.80;;
26860;SDS011;37676;46.956;7.430;2022-09-01T15:04:35;2.88;;;1.33;;
26860;SDS011;37676;46.956;7.430;2022-09-01T15:07:01;5.22;;;2.35;;
26860;SDS011;37676;46.956;7.430;2022-09-01T15:09:28;2.05;;;1.30;;
26860;SDS011;37676;46.956;7.430;2022-09-01T15:11:54;2.78;;;1.40;;
26860;SDS011;37676;46.956;7.430;2022-09-01T15:14:19;4.03;;;2.20;;
26860;SDS011;37676;46.956;7.430;2022-09-01T15:16:44;3.08;;;1.73;;
26860;SDS011;37676;46.956;7.430;2022-09-01T15:19:12;1.73;;;1.00;;
26860;SDS011;37676;46.956;7.430;2022-09-01T15:21:38;2.17;;;1.10;;
26860;SDS011;37676;46.956;7.430;2022-09-01T15:24:06;2.85;;;1.67;;
26860;SDS011;37676;46.956;7.430;2022-09-01T15:26:32;2.40;;;1.27;;
26860;SDS011;37676;46.956;7.430;2022-09-01T15:29:00;2.30;;;1.30;;
26860;SDS011;37676;46.956;7.430;2022-09-01T15:31:29;2.58;;;1.50;;
26860;SDS011;37676;46.956;7.430;2022-09-01T15:33:57;2.30;;;1.27;;
26860;SDS011;37676;46.956;7.430;2022-09-01T15:36:25;2.20;;;1.00;;
26860;SDS011;37676;46.956;7.430;2022-09-01T15:38:52;1.42;;;0.73;;
26860;SDS011;37676;46.956;7.430;2022-09-01T15:41:26;1.77;;;0.88;;
26860;SDS011;37676;46.956;7.430;2022-09-01T15:43:53;1.98;;;1.17;;
26860;SDS011;37676;46.956;7.430;2022-09-01T15:46:19;1.45;;;0.80;;
26860;SDS011;37676;46.956;7.430;2022-09-01T15:48:45;2.17;;;1.00;;
26860;SDS011;37676;46.956;7.430;2022-09-01T15:53:45;1.92;;;0.85;;
26860;SDS011;37676;46.956;7.430;2022-09-01T15:56:11;2.35;;;1.00;;
26860;SDS011;37676;46.956;7.430;2022-09-01T15:58:36;1.70;;;0.80;;
26860;SDS011;37676;46.956;7.430;2022-09-01T16:01:01;2.27;;;1.20;;